createdAt,value
2023-01-17T06:38:57.759Z,98006.34
2023-01-17T06:43:59.821Z,98004.22
2023-01-17T06:49:02.043Z,98014.44
2023-01-17T06:54:04.233Z,98044.81
2023-01-17T06:59:06.434Z,98060.94
2023-01-17T07:04:08.623Z,98062.03
2023-01-17T07:09:10.735Z,98083.78
2023-01-17T07:14:13.769Z,98065.78
2023-01-17T07:19:15.972Z,98096.44
2023-01-17T07:24:18.720Z,98095.06
2023-01-17T07:29:20.828Z,98109.88
2023-01-17T07:34:22.867Z,98111.19
2023-01-17T07:39:25.164Z,98106.09
2023-01-17T07:44:27.252Z,98124.38
2023-01-17T07:49:29.330Z,98128.69
2023-01-17T07:54:31.373Z,98159.34
2023-01-17T07:59:34.486Z,98169.28
2023-01-17T08:04:36.605Z,98191.84
2023-01-17T08:09:38.659Z,98187.56
2023-01-17T08:14:40.716Z,98191.59
2023-01-17T08:19:43.369Z,98193.72
2023-01-17T08:24:45.419Z,98209.84
2023-01-17T08:29:48.461Z,98217.91
2023-01-17T08:34:50.571Z,98230.72
2023-01-17T08:39:52.689Z,98238.28
2023-01-17T08:44:54.762Z,98239.44
2023-01-17T08:49:59.612Z,98246.03
2023-01-17T08:55:01.957Z,98231.56
2023-01-17T09:00:04.317Z,98221.62
2023-01-17T09:05:07.043Z,98240.75
2023-01-17T09:10:09.734Z,98245.97
2023-01-17T09:15:14.701Z,98239.13
2023-01-17T09:20:17.143Z,98254.16
2023-01-17T09:25:19.271Z,98259.16
2023-01-17T09:30:22.183Z,98264.16
2023-01-17T09:35:24.559Z,98272.13
2023-01-17T09:52:23.833Z,98284.38
2023-01-17T09:57:57.049Z,98289.34
2023-01-17T10:03:05.213Z,98306.75
2023-01-17T10:08:19.273Z,98313.19
2023-01-17T10:13:35.518Z,98332.37
2023-01-17T10:19:19.518Z,98339.03
2023-01-17T10:24:59.111Z,98326.00
2023-01-17T10:30:16.963Z,98331.91
2023-01-17T10:35:26.514Z,98330.03
2023-01-17T10:40:50.282Z,98333.88
2023-01-17T10:45:55.301Z,98325.72
2023-01-17T10:51:20.315Z,98302.75
2023-01-17T10:56:28.073Z,98325.19
2023-01-17T11:01:30.360Z,98311.47
2023-01-17T11:06:33.213Z,98307.31
2023-01-17T11:11:37.500Z,98292.88
2023-01-17T11:16:39.628Z,98294.31
2023-01-17T11:21:54.822Z,98271.34
2023-01-17T11:26:58.049Z,98268.22
2023-01-17T11:32:33.691Z,98275.56
2023-01-17T11:37:36.268Z,98261.63
2023-01-17T11:42:38.513Z,98249.41
2023-01-17T11:47:40.574Z,98242.75
2023-01-17T11:52:43.382Z,98222.03
2023-01-17T11:57:50.911Z,98233.97
2023-01-17T12:03:16.079Z,98229.81
2023-01-17T12:08:53.138Z,98229.56
2023-01-17T12:14:34.463Z,98262.81
2023-01-17T12:20:00.825Z,98250.44
2023-01-17T12:25:24.661Z,98249.84
2023-01-17T12:30:55.909Z,98233.13
2023-01-17T12:36:02.963Z,98218.94
2023-01-17T12:41:42.534Z,98217.66
2023-01-17T12:46:54.584Z,98209.47
2023-01-17T12:52:04.974Z,98217.97
2023-01-17T12:57:45.677Z,98208.31
2023-01-17T13:02:50.753Z,98216.13
2023-01-17T13:08:10.967Z,98211.75
2023-01-17T13:13:26.008Z,98199.84
2023-01-17T13:18:29.857Z,98206.12
2023-01-17T13:23:56.425Z,98197.63
2023-01-17T13:29:20.187Z,98197.97
2023-01-17T13:34:43.715Z,98203.38
2023-01-17T13:40:21.811Z,98218.81
2023-01-17T13:45:28.546Z,98208.84
2023-01-17T13:50:36.806Z,98197.66
2023-01-17T13:55:47.266Z,98184.94
2023-01-17T14:00:50.611Z,98181.69
2023-01-17T14:05:57.119Z,98173.97
2023-01-17T14:11:09.827Z,98164.66
2023-01-17T14:16:21.011Z,98138.12
2023-01-17T14:21:26.297Z,98132.63
2023-01-17T14:26:46.362Z,98108.16
2023-01-17T14:31:49.328Z,98104.78
2023-01-17T14:36:51.405Z,98107.50
2023-01-17T14:41:53.504Z,98098.69
2023-01-17T14:46:57.211Z,98075.56
2023-01-17T14:52:03.974Z,98073.22
2023-01-17T14:57:24.917Z,98092.12
2023-01-17T15:02:27.220Z,98061.59
2023-01-17T15:07:32.317Z,98070.66
2023-01-17T15:12:36.746Z,98066.47
2023-01-17T15:17:38.852Z,98050.09
2023-01-17T15:22:41.012Z,98073.91
2023-01-17T15:27:43.296Z,98079.75
2023-01-17T15:32:49.266Z,98069.97
2023-01-17T15:37:54.263Z,98057.13
2023-01-17T15:42:59.380Z,98061.12
2023-01-17T15:48:32.721Z,98048.78
2023-01-17T15:53:40.732Z,98033.19
2023-01-17T15:58:42.843Z,98032.44
2023-01-17T16:03:55.329Z,98015.81
2023-01-17T16:08:57.458Z,98018.78
2023-01-17T16:13:59.648Z,98012.88
2023-01-17T16:19:02.852Z,98007.53
2023-01-17T16:24:06.043Z,98011.56
2023-01-17T16:29:08.253Z,98010.22
2023-01-17T16:34:14.659Z,98006.84
2023-01-17T16:39:16.823Z,97998.72
2023-01-17T16:44:19.498Z,97993.06
2023-01-17T16:49:21.564Z,97968.94
2023-01-17T16:54:23.780Z,97982.06
2023-01-17T16:59:32.192Z,97964.97
2023-01-17T17:04:38.841Z,97985.44
2023-01-17T17:09:41.042Z,97972.53
2023-01-17T17:14:43.302Z,97966.22
2023-01-17T17:19:45.390Z,97952.13
2023-01-17T17:24:47.428Z,97960.16
2023-01-17T17:29:49.488Z,97943.97
2023-01-17T17:34:51.559Z,97928.19
2023-01-17T17:39:53.625Z,97917.75
2023-01-17T17:44:55.706Z,97919.28
2023-01-17T17:49:57.899Z,97913.97
2023-01-17T17:55:00.046Z,97894.06
2023-01-17T18:00:02.532Z,97868.88
2023-01-17T18:05:05.041Z,97868.28
2023-01-17T18:10:08.918Z,97850.81
2023-01-17T18:15:11.203Z,97834.72
2023-01-17T18:20:14.472Z,97815.69
2023-01-17T18:25:16.688Z,97798.78
2023-01-17T18:30:18.786Z,97800.63
2023-01-17T18:35:20.855Z,97775.66
2023-01-17T18:40:23.030Z,97779.84
2023-01-17T18:45:25.077Z,97767.19
2023-01-17T18:50:27.154Z,97770.78
2023-01-17T18:55:29.255Z,97764.78
2023-01-17T19:00:31.387Z,97761.69
2023-01-17T19:05:36.213Z,97730.13
2023-01-17T19:10:38.449Z,97713.47
2023-01-17T19:15:41.753Z,97711.06
2023-01-17T19:20:43.943Z,97710.22
2023-01-17T19:25:46.025Z,97690.06
2023-01-17T19:30:48.104Z,97689.00
2023-01-17T19:35:50.386Z,97672.19
2023-01-17T19:40:52.484Z,97669.44
2023-01-17T19:45:59.361Z,97652.84
2023-01-17T19:51:13.102Z,97627.91
2023-01-17T19:56:17.671Z,97620.22
2023-01-17T20:01:30.313Z,97596.16
2023-01-17T20:06:35.635Z,97581.66
2023-01-17T20:11:38.382Z,97581.34
2023-01-17T20:16:40.588Z,97570.97
2023-01-17T20:21:42.793Z,97587.16
2023-01-17T20:26:44.949Z,97603.28
2023-01-17T20:31:52.482Z,97568.78
2023-01-17T20:36:57.491Z,97573.25
2023-01-17T20:41:59.591Z,97582.69
2023-01-17T20:47:01.777Z,97566.94
2023-01-17T20:52:06.057Z,97590.72
2023-01-17T20:57:08.289Z,97590.75
